createdAt,value
2023-09-16T00:01:20.462Z,52.67
2023-09-16T00:03:47.811Z,52.57
2023-09-16T00:06:15.438Z,51.72
2023-09-16T00:08:44.227Z,51.47
2023-09-16T00:11:11.337Z,51.63
2023-09-16T00:13:38.390Z,51.42
2023-09-16T00:16:06.038Z,52.14
2023-09-16T00:18:33.338Z,52.35
2023-09-16T00:21:00.202Z,52.05
2023-09-16T00:23:26.972Z,52.34
2023-09-16T00:25:53.786Z,52.70
2023-09-16T00:28:20.378Z,52.00
2023-09-16T00:30:47.122Z,53.40
2023-09-16T00:33:14.055Z,52.20
2023-09-16T00:35:40.660Z,52.65
2023-09-16T00:38:07.275Z,52.46
2023-09-16T00:40:33.902Z,53.50
2023-09-16T00:43:01.109Z,53.71
2023-09-16T00:45:29.046Z,54.67
2023-09-16T00:47:55.766Z,53.57
2023-09-16T00:50:22.751Z,53.78
2023-09-16T00:52:54.780Z,54.06
2023-09-16T00:55:21.958Z,54.44
2023-09-16T00:57:51.802Z,54.08
2023-09-16T01:00:19.029Z,53.53
2023-09-16T01:02:46.955Z,52.85
2023-09-16T01:05:18.275Z,52.49
2023-09-16T01:07:50.118Z,52.02
2023-09-16T01:10:21.911Z,52.01
2023-09-16T01:12:51.191Z,52.14
2023-09-16T01:15:20.022Z,52.87
2023-09-16T01:18:05.769Z,53.32
2023-09-16T01:20:33.873Z,53.14
2023-09-16T01:23:00.915Z,54.27
2023-09-16T01:25:29.944Z,53.31
2023-09-16T01:27:56.999Z,53.99
2023-09-16T01:30:27.300Z,53.03
2023-09-16T01:33:00.431Z,52.42
2023-09-16T01:35:33.534Z,52.67
2023-09-16T01:38:00.708Z,52.32
2023-09-16T01:40:30.298Z,51.77
2023-09-16T01:42:59.931Z,51.39
2023-09-16T01:45:40.284Z,51.11
2023-09-16T01:48:07.287Z,51.41
2023-09-16T01:50:34.064Z,50.65
2023-09-16T01:53:02.212Z,50.77
2023-09-16T01:55:29.475Z,50.61
2023-09-16T01:57:56.042Z,50.82
2023-09-16T02:00:24.553Z,50.95
2023-09-16T02:02:52.274Z,51.18
2023-09-16T02:05:18.982Z,51.76
2023-09-16T02:07:45.722Z,51.53
2023-09-16T02:10:13.341Z,51.82
2023-09-16T02:12:41.727Z,51.75
2023-09-16T02:15:11.078Z,51.13
2023-09-16T02:17:40.238Z,50.97
2023-09-16T02:20:14.288Z,51.07
2023-09-16T02:22:45.446Z,50.94
2023-09-16T02:25:12.580Z,50.90
2023-09-16T02:27:42.118Z,51.02
2023-09-16T02:30:08.905Z,50.55
2023-09-16T02:32:36.237Z,50.54
2023-09-16T02:35:04.681Z,50.82
2023-09-16T02:37:31.279Z,50.54
2023-09-16T02:39:57.929Z,50.78
2023-09-16T02:42:24.539Z,51.24
2023-09-16T02:44:51.823Z,51.35
2023-09-16T02:47:18.449Z,51.47
2023-09-16T02:49:45.200Z,52.26
2023-09-16T02:52:12.185Z,51.74
2023-09-16T02:54:38.819Z,51.85
2023-09-16T02:57:05.419Z,52.56
2023-09-16T02:59:32.379Z,51.93
2023-09-16T03:01:59.141Z,51.53
2023-09-16T03:04:25.767Z,51.93
2023-09-16T03:06:52.723Z,52.13
2023-09-16T03:09:20.575Z,52.22
2023-09-16T03:11:48.220Z,52.81
2023-09-16T03:14:15.627Z,53.11
2023-09-16T03:19:11.837Z,54.15
2023-09-16T03:21:39.236Z,56.15
2023-09-16T03:24:06.133Z,56.04
2023-09-16T03:26:34.156Z,56.55
2023-09-16T03:29:01.297Z,56.14
2023-09-16T03:31:29.459Z,55.50
2023-09-16T03:34:02.689Z,55.75
2023-09-16T03:36:29.733Z,56.01
2023-09-16T03:38:56.404Z,55.43
2023-09-16T03:41:24.577Z,55.63
2023-09-16T03:43:57.978Z,55.51
2023-09-16T03:46:25.370Z,54.76
2023-09-16T03:48:53.155Z,54.49
2023-09-16T03:51:21.753Z,53.67
2023-09-16T03:53:49.950Z,54.13
2023-09-16T03:56:16.669Z,53.54
2023-09-16T03:58:43.281Z,54.80
2023-09-16T04:01:10.924Z,54.25
2023-09-16T04:03:38.065Z,54.82
2023-09-16T04:06:05.848Z,55.12
2023-09-16T04:08:41.326Z,54.55
2023-09-16T04:11:11.038Z,54.28
2023-09-16T04:13:38.545Z,54.45
2023-09-16T04:16:05.463Z,54.25
2023-09-16T04:18:32.221Z,54.73
2023-09-16T04:20:58.883Z,56.22
2023-09-16T04:23:26.297Z,55.19
2023-09-16T04:25:57.433Z,55.57
2023-09-16T04:28:24.771Z,55.19
2023-09-16T04:30:53.729Z,55.61
2023-09-16T04:33:22.423Z,57.08
2023-09-16T04:35:50.773Z,55.50
2023-09-16T04:38:19.592Z,55.06
2023-09-16T04:40:50.615Z,55.09
2023-09-16T04:43:18.266Z,54.41
2023-09-16T04:45:50.127Z,53.61
2023-09-16T04:48:24.561Z,53.54
2023-09-16T04:50:51.252Z,53.34
2023-09-16T04:53:19.087Z,53.41
2023-09-16T04:55:45.971Z,54.21
2023-09-16T04:58:12.769Z,54.78
2023-09-16T05:00:40.215Z,55.12
2023-09-16T05:03:08.107Z,55.71
2023-09-16T05:05:36.343Z,56.30
2023-09-16T05:08:04.623Z,57.92
2023-09-16T05:10:33.144Z,59.52
2023-09-16T05:13:00.577Z,59.23
2023-09-16T05:15:28.646Z,59.18
2023-09-16T05:17:55.752Z,59.08
2023-09-16T05:20:22.704Z,60.44
2023-09-16T05:22:49.962Z,61.18
2023-09-16T05:25:18.103Z,60.04
2023-09-16T05:27:45.407Z,61.38
2023-09-16T05:30:12.303Z,61.73
2023-09-16T05:32:39.578Z,61.45
2023-09-16T05:35:06.428Z,60.92
2023-09-16T05:37:33.129Z,61.55
2023-09-16T05:40:01.910Z,60.76
2023-09-16T05:42:29.860Z,58.32
2023-09-16T05:44:56.481Z,59.06
2023-09-16T05:47:23.749Z,58.66
2023-09-16T05:49:50.444Z,58.67
2023-09-16T05:52:17.103Z,60.21
2023-09-16T05:54:44.351Z,59.44
2023-09-16T05:57:11.439Z,61.73
2023-09-16T05:59:38.047Z,61.63
2023-09-16T06:02:05.286Z,60.28
2023-09-16T06:04:32.720Z,61.55
2023-09-16T06:06:59.541Z,61.22
2023-09-16T06:09:26.238Z,61.41
2023-09-16T06:11:53.348Z,62.49
2023-09-16T06:14:20.126Z,63.41
2023-09-16T06:16:47.471Z,63.51
2023-09-16T06:19:14.154Z,63.67
2023-09-16T06:21:40.974Z,65.29
2023-09-16T06:24:07.888Z,64.39
2023-09-16T06:26:34.579Z,64.13
2023-09-16T06:29:01.212Z,63.98
2023-09-16T06:31:27.786Z,63.85
2023-09-16T06:33:56.481Z,63.75
2023-09-16T06:36:23.897Z,64.96
2023-09-16T06:38:51.081Z,63.08
2023-09-16T06:41:18.708Z,63.70
2023-09-16T06:43:45.340Z,63.96
2023-09-16T06:46:12.019Z,64.04
2023-09-16T06:48:39.186Z,64.10
2023-09-16T06:51:06.402Z,61.42
2023-09-16T06:53:33.524Z,61.86
2023-09-16T06:56:00.981Z,60.95
2023-09-16T06:58:27.577Z,62.04
2023-09-16T07:00:54.317Z,59.71
2023-09-16T07:03:22.081Z,59.55
2023-09-16T07:05:51.664Z,60.85
2023-09-16T07:08:19.848Z,59.47
2023-09-16T07:10:46.590Z,58.73
2023-09-16T07:13:13.206Z,58.09
2023-09-16T07:15:39.954Z,56.63
2023-09-16T07:18:06.751Z,57.10
2023-09-16T07:20:33.982Z,55.94
2023-09-16T07:23:00.980Z,56.70
2023-09-16T07:25:27.674Z,57.87
2023-09-16T07:27:56.072Z,58.00
2023-09-16T07:30:23.835Z,58.45
2023-09-16T07:32:51.969Z,59.19
2023-09-16T07:35:19.398Z,58.82
2023-09-16T07:37:46.419Z,57.20
2023-09-16T07:40:13.801Z,56.79
2023-09-16T07:42:40.806Z,56.65
2023-09-16T07:45:08.036Z,58.69
2023-09-16T07:47:34.947Z,60.03
2023-09-16T07:50:23.846Z,59.75
2023-09-16T07:52:50.425Z,59.99
2023-09-16T07:55:18.065Z,58.92
2023-09-16T07:57:44.668Z,57.47
2023-09-16T08:00:12.095Z,58.19
2023-09-16T08:02:39.048Z,58.44
2023-09-16T08:05:06.846Z,58.60
2023-09-16T08:07:33.422Z,57.22
2023-09-16T08:10:00.011Z,57.63
2023-09-16T08:12:29.262Z,58.20
2023-09-16T08:14:56.108Z,58.73
2023-09-16T08:17:23.101Z,56.75
2023-09-16T08:19:49.654Z,55.71
2023-09-16T08:22:16.491Z,55.30
2023-09-16T08:24:44.100Z,54.70
2023-09-16T08:27:32.996Z,53.69
2023-09-16T08:29:59.572Z,52.15
2023-09-16T08:32:30.355Z,52.57
2023-09-16T08:34:57.886Z,52.36
2023-09-16T08:37:24.981Z,51.46
2023-09-16T08:39:51.690Z,51.62
2023-09-16T08:42:27.725Z,50.42
2023-09-16T08:44:58.774Z,49.42
2023-09-16T08:47:29.999Z,48.84
2023-09-16T08:50:05.932Z,48.26
2023-09-16T08:52:54.143Z,48.04
2023-09-16T08:55:22.296Z,47.85
2023-09-16T08:57:54.658Z,47.45
2023-09-16T09:00:22.151Z,47.74
2023-09-16T09:02:51.169Z,47.08
2023-09-16T09:05:20.434Z,46.28
2023-09-16T09:07:47.302Z,46.10
2023-09-16T09:10:14.355Z,45.01
2023-09-16T09:12:43.358Z,46.06
2023-09-16T09:15:12.639Z,47.52
2023-09-16T09:17:57.016Z,47.18
2023-09-16T09:20:26.482Z,47.64
2023-09-16T09:22:53.723Z,45.89
2023-09-16T09:25:25.225Z,45.53
2023-09-16T09:27:53.561Z,46.25
2023-09-16T09:30:25.652Z,46.40
2023-09-16T09:32:52.855Z,46.25
2023-09-16T09:35:22.782Z,45.47
2023-09-16T09:37:50.104Z,44.52
2023-09-16T09:40:18.422Z,43.78
2023-09-16T09:42:53.677Z,42.61
2023-09-16T09:45:22.741Z,41.85
2023-09-16T09:47:51.604Z,41.94
2023-09-16T09:50:24.761Z,41.68
2023-09-16T09:52:53.447Z,43.13
2023-09-16T09:55:21.772Z,41.79
2023-09-16T09:57:51.808Z,41.65
2023-09-16T10:00:21.489Z,42.32
2023-09-16T10:02:49.688Z,39.61
2023-09-16T10:05:18.316Z,40.95
2023-09-16T10:07:45.871Z,41.76
2023-09-16T10:10:19.824Z,41.17
2023-09-16T10:12:48.235Z,41.49
2023-09-16T10:15:15.409Z,41.15
2023-09-16T10:17:43.750Z,40.44
2023-09-16T10:20:13.098Z,41.78
2023-09-16T10:22:41.702Z,41.69
2023-09-16T10:25:09.951Z,40.36
2023-09-16T10:27:53.624Z,40.54
2023-09-16T10:30:22.814Z,40.61
2023-09-16T10:32:51.237Z,41.76
2023-09-16T10:35:20.124Z,40.03
2023-09-16T10:37:52.240Z,40.01
2023-09-16T10:40:19.527Z,41.01
2023-09-16T10:42:48.146Z,39.37
2023-09-16T10:45:17.483Z,39.01
2023-09-16T10:48:06.749Z,37.57
2023-09-16T10:50:37.549Z,38.27
2023-09-16T10:53:14.975Z,37.54
2023-09-16T10:55:49.410Z,38.93
2023-09-16T10:58:26.942Z,40.68
2023-09-16T11:00:58.677Z,39.74
2023-09-16T11:03:32.148Z,40.54
2023-09-16T11:05:59.745Z,39.84
2023-09-16T11:08:26.672Z,39.45
2023-09-16T11:10:54.346Z,38.93
2023-09-16T11:13:22.679Z,37.93
2023-09-16T11:15:50.861Z,38.13
2023-09-16T11:18:17.751Z,38.17
2023-09-16T11:20:47.333Z,38.31
2023-09-16T11:23:14.044Z,39.24
2023-09-16T11:25:44.481Z,38.25
2023-09-16T11:28:17.404Z,39.24
2023-09-16T11:31:01.091Z,38.63
2023-09-16T11:33:38.855Z,38.46
2023-09-16T11:36:16.948Z,38.14
2023-09-16T11:38:54.481Z,38.69
2023-09-16T11:41:23.328Z,38.13
2023-09-16T11:43:50.526Z,37.98
2023-09-16T11:46:17.230Z,36.30
2023-09-16T11:48:51.173Z,37.23
2023-09-16T11:51:20.037Z,36.60
2023-09-16T11:53:48.878Z,35.65
2023-09-16T11:56:17.062Z,37.06
2023-09-16T11:58:45.492Z,35.47
2023-09-16T12:01:13.928Z,36.37
2023-09-16T12:03:43.873Z,36.44
2023-09-16T12:06:11.481Z,36.40
2023-09-16T12:08:41.331Z,35.82
2023-09-16T12:11:08.334Z,35.76
2023-09-16T12:13:35.790Z,36.56
2023-09-16T12:16:02.503Z,36.56
2023-09-16T12:18:29.990Z,36.85
2023-09-16T12:20:56.864Z,38.19
2023-09-16T12:23:29.079Z,37.16
2023-09-16T12:25:55.657Z,37.55
2023-09-16T12:28:24.026Z,38.57
2023-09-16T12:30:53.910Z,36.91
2023-09-16T12:33:21.796Z,37.81
2023-09-16T12:35:48.820Z,37.40
2023-09-16T12:38:18.605Z,37.89
2023-09-16T12:40:46.830Z,36.68
2023-09-16T12:43:13.826Z,36.40
2023-09-16T12:45:41.505Z,37.10
2023-09-16T12:48:11.363Z,36.77
2023-09-16T12:50:39.349Z,36.44
2023-09-16T12:53:06.301Z,36.56
2023-09-16T12:55:33.016Z,35.95
2023-09-16T12:58:00.506Z,37.20
2023-09-16T13:00:27.491Z,37.07
2023-09-16T13:02:54.593Z,36.14
2023-09-16T13:05:25.001Z,36.73
2023-09-16T13:07:53.768Z,37.05
2023-09-16T13:10:23.430Z,38.04
2023-09-16T13:12:51.482Z,38.94
2023-09-16T13:15:21.614Z,38.17
2023-09-16T13:18:05.350Z,37.27
2023-09-16T13:20:37.053Z,37.57
2023-09-16T13:23:04.693Z,38.21
2023-09-16T13:25:42.432Z,37.34
2023-09-16T13:28:15.080Z,38.13
2023-09-16T13:30:44.197Z,37.73
2023-09-16T13:33:11.549Z,38.18
2023-09-16T13:35:40.923Z,36.38
2023-09-16T13:38:10.225Z,37.06
2023-09-16T13:40:37.568Z,36.41
2023-09-16T13:43:06.536Z,36.51
2023-09-16T13:45:35.253Z,37.14
2023-09-16T13:48:18.334Z,36.43
2023-09-16T13:50:49.711Z,35.78
2023-09-16T13:53:19.101Z,36.63
2023-09-16T13:55:48.197Z,36.62
2023-09-16T13:58:15.757Z,37.35
2023-09-16T14:00:42.625Z,37.39
2023-09-16T14:03:09.289Z,37.00
2023-09-16T14:05:37.072Z,37.31
2023-09-16T14:08:04.964Z,36.85
2023-09-16T14:10:33.307Z,36.92
2023-09-16T14:13:07.762Z,36.68
2023-09-16T14:15:36.716Z,37.67
2023-09-16T14:18:07.459Z,36.75
2023-09-16T14:20:34.326Z,36.35
2023-09-16T14:23:02.797Z,35.90
2023-09-16T14:25:30.220Z,37.34
2023-09-16T14:27:58.043Z,36.79
2023-09-16T14:30:25.021Z,37.47
2023-09-16T14:32:52.025Z,36.99
2023-09-16T14:35:18.872Z,37.05
2023-09-16T14:37:46.986Z,36.91
2023-09-16T14:40:14.833Z,37.78
2023-09-16T14:42:42.032Z,37.92
2023-09-16T14:45:09.422Z,38.53
2023-09-16T14:47:36.080Z,37.56
2023-09-16T14:50:02.957Z,37.25
2023-09-16T14:52:31.150Z,36.96
2023-09-16T14:54:58.835Z,37.43
2023-09-16T14:57:25.478Z,36.89
2023-09-16T14:59:52.493Z,37.75
2023-09-16T15:02:19.537Z,36.01
2023-09-16T15:04:47.571Z,35.73
2023-09-16T15:07:14.201Z,36.82
2023-09-16T15:09:41.197Z,36.48
2023-09-16T15:12:08.352Z,36.41
2023-09-16T15:14:34.927Z,36.73
2023-09-16T15:17:01.903Z,36.08
2023-09-16T15:19:28.571Z,37.14
2023-09-16T15:21:55.261Z,36.86
2023-09-16T15:24:22.002Z,35.96
2023-09-16T15:26:48.615Z,37.52
2023-09-16T15:29:15.562Z,37.36
2023-09-16T15:31:42.830Z,36.94
2023-09-16T15:34:09.903Z,37.86
2023-09-16T15:36:37.043Z,38.20
2023-09-16T15:39:03.729Z,38.76
2023-09-16T15:41:30.402Z,37.62
2023-09-16T15:43:58.510Z,37.80
2023-09-16T15:46:25.431Z,37.14
2023-09-16T15:48:52.002Z,36.76
2023-09-16T15:51:18.999Z,37.18
2023-09-16T15:53:45.650Z,37.82
2023-09-16T15:56:13.657Z,37.34
2023-09-16T15:58:41.799Z,37.03
2023-09-16T16:01:08.909Z,38.65
2023-09-16T16:03:35.849Z,38.82
2023-09-16T16:06:03.804Z,38.80
2023-09-16T16:08:30.670Z,38.79
2023-09-16T16:10:57.530Z,39.33
2023-09-16T16:13:24.384Z,40.15
2023-09-16T16:15:52.236Z,39.57
2023-09-16T16:18:22.964Z,38.51
2023-09-16T16:20:49.870Z,39.71
2023-09-16T16:23:16.957Z,39.74
2023-09-16T16:25:45.974Z,39.88
2023-09-16T16:28:13.803Z,40.00
2023-09-16T16:30:40.823Z,40.63
2023-09-16T16:33:07.662Z,39.56
2023-09-16T16:35:34.314Z,40.05
2023-09-16T16:38:00.878Z,39.66
2023-09-16T16:40:27.556Z,39.63
2023-09-16T16:42:54.156Z,39.59
2023-09-16T16:45:20.751Z,40.69
2023-09-16T16:47:49.213Z,39.54
2023-09-16T16:50:17.668Z,39.87
2023-09-16T16:52:45.200Z,39.56
2023-09-16T16:55:12.071Z,38.97
2023-09-16T16:57:38.683Z,39.39
2023-09-16T17:00:07.013Z,39.48
2023-09-16T17:02:34.370Z,39.13
2023-09-16T17:05:01.731Z,38.87
2023-09-16T17:07:28.630Z,39.29
2023-09-16T17:09:58.517Z,38.79
2023-09-16T17:12:25.868Z,38.69
2023-09-16T17:14:52.771Z,39.24
2023-09-16T17:17:21.427Z,39.47
2023-09-16T17:19:49.181Z,39.02
2023-09-16T17:22:18.667Z,39.30
2023-09-16T17:24:45.992Z,39.53
2023-09-16T17:27:12.800Z,40.36
2023-09-16T17:29:39.629Z,40.60
2023-09-16T17:32:06.605Z,40.89
2023-09-16T17:34:33.740Z,41.09
2023-09-16T17:37:00.657Z,41.09
2023-09-16T17:39:27.653Z,41.39
2023-09-16T17:41:55.151Z,41.64
2023-09-16T17:44:21.874Z,41.79
2023-09-16T17:46:48.590Z,42.14
2023-09-16T17:49:16.324Z,42.21
2023-09-16T17:51:43.972Z,43.02
2023-09-16T17:54:10.937Z,42.96
2023-09-16T17:56:37.590Z,43.21
2023-09-16T17:59:07.531Z,43.47
2023-09-16T18:01:34.265Z,43.53
2023-09-16T18:04:01.305Z,43.60
2023-09-16T18:06:27.990Z,43.81
2023-09-16T18:08:54.628Z,43.86
2023-09-16T18:11:21.741Z,44.08
2023-09-16T18:13:48.715Z,44.76
2023-09-16T18:16:16.024Z,44.90
2023-09-16T18:18:43.101Z,44.83
2023-09-16T18:21:11.776Z,45.42
2023-09-16T18:23:38.815Z,45.57
2023-09-16T18:26:05.637Z,45.46
2023-09-16T18:28:32.876Z,45.84
2023-09-16T18:31:00.316Z,45.42
2023-09-16T18:33:30.324Z,45.56
2023-09-16T18:35:57.098Z,45.43
2023-09-16T18:38:24.620Z,45.78
2023-09-16T18:40:51.296Z,45.73
2023-09-16T18:43:20.361Z,46.00
2023-09-16T18:45:47.970Z,45.72
2023-09-16T18:48:15.445Z,46.01
2023-09-16T18:50:43.455Z,46.45
2023-09-16T18:53:12.924Z,46.94
2023-09-16T18:55:45.772Z,47.68
2023-09-16T18:58:16.356Z,47.34
2023-09-16T19:00:44.129Z,46.92
2023-09-16T19:03:11.686Z,46.77
2023-09-16T19:05:42.192Z,47.14
2023-09-16T19:08:10.233Z,46.63
2023-09-16T19:10:39.017Z,46.84
2023-09-16T19:13:06.750Z,47.01
2023-09-16T19:15:34.175Z,47.00
2023-09-16T19:18:01.047Z,47.15
2023-09-16T19:20:31.311Z,47.00
2023-09-16T19:23:00.024Z,47.34
2023-09-16T19:25:27.450Z,47.07
2023-09-16T19:27:54.243Z,47.39
2023-09-16T19:30:21.270Z,47.46
2023-09-16T19:32:48.263Z,47.59
2023-09-16T19:35:15.231Z,47.59
2023-09-16T19:37:41.949Z,47.89
2023-09-16T19:40:10.424Z,47.28
2023-09-16T19:42:37.496Z,47.78
2023-09-16T19:45:05.001Z,47.55
2023-09-16T19:47:33.301Z,47.80
2023-09-16T19:50:00.350Z,47.87
2023-09-16T19:52:27.159Z,48.23
2023-09-16T19:54:54.241Z,48.57
2023-09-16T19:57:21.001Z,48.98
2023-09-16T19:59:47.726Z,49.08
2023-09-16T20:02:14.898Z,48.98
2023-09-16T20:04:42.225Z,49.10
2023-09-16T20:07:09.937Z,49.04
2023-09-16T20:09:37.223Z,48.57
2023-09-16T20:12:04.297Z,48.47
2023-09-16T20:14:31.016Z,48.82
2023-09-16T20:16:57.916Z,48.67
2023-09-16T20:19:25.164Z,48.92
2023-09-16T20:21:51.929Z,49.07
2023-09-16T20:24:20.382Z,48.98
2023-09-16T20:26:47.072Z,48.86
2023-09-16T20:29:13.862Z,48.72
2023-09-16T20:31:40.762Z,49.32
2023-09-16T20:34:12.276Z,49.37
2023-09-16T20:36:45.463Z,49.26
2023-09-16T20:39:13.516Z,49.46
2023-09-16T20:41:40.280Z,49.25
2023-09-16T20:44:07.018Z,49.75
2023-09-16T20:46:34.121Z,49.71
2023-09-16T20:49:00.992Z,49.52
2023-09-16T20:51:27.895Z,49.48
2023-09-16T20:53:54.525Z,49.68
2023-09-16T20:56:21.134Z,49.60
2023-09-16T20:58:47.752Z,49.58
2023-09-16T21:01:14.531Z,49.59
2023-09-16T21:03:41.966Z,49.79
2023-09-16T21:06:08.951Z,49.47
2023-09-16T21:08:35.601Z,49.28
2023-09-16T21:11:02.895Z,49.18
2023-09-16T21:13:30.623Z,49.23
2023-09-16T21:15:57.394Z,49.17
2023-09-16T21:18:24.067Z,49.59
2023-09-16T21:20:51.061Z,49.56
2023-09-16T21:23:17.669Z,49.44
2023-09-16T21:25:44.569Z,49.50
2023-09-16T21:28:11.232Z,49.76
2023-09-16T21:30:40.132Z,49.67
2023-09-16T21:33:07.030Z,49.62
2023-09-16T21:35:33.805Z,49.85
2023-09-16T21:38:00.420Z,49.83
2023-09-16T21:40:27.192Z,49.85
2023-09-16T21:42:54.692Z,49.74
2023-09-16T21:45:21.435Z,49.67
2023-09-16T21:47:48.414Z,49.58
2023-09-16T21:50:15.893Z,49.65
2023-09-16T21:52:42.566Z,49.89
2023-09-16T21:55:09.378Z,49.99
2023-09-16T21:57:36.011Z,49.65
2023-09-16T22:00:04.912Z,49.73
2023-09-16T22:02:31.700Z,49.81
2023-09-16T22:04:58.378Z,49.86
2023-09-16T22:07:24.994Z,49.89
2023-09-16T22:09:51.613Z,49.67
2023-09-16T22:12:18.341Z,49.88
2023-09-16T22:14:44.968Z,49.92
2023-09-16T22:17:11.591Z,49.58
2023-09-16T22:19:38.249Z,49.94
2023-09-16T22:22:04.990Z,49.96
2023-09-16T22:24:32.432Z,50.14
2023-09-16T22:26:59.055Z,49.80
2023-09-16T22:29:25.720Z,50.00
2023-09-16T22:31:52.403Z,49.94
2023-09-16T22:34:19.520Z,50.08
2023-09-16T22:36:46.212Z,50.20
2023-09-16T22:39:13.098Z,50.17
2023-09-16T22:41:39.727Z,50.47
2023-09-16T22:44:06.454Z,50.29
2023-09-16T22:46:35.789Z,50.38
2023-09-16T22:49:03.796Z,50.46
2023-09-16T22:51:31.204Z,50.60
2023-09-16T22:53:57.822Z,50.64
2023-09-16T22:56:24.481Z,50.64
2023-09-16T22:58:51.609Z,50.96
2023-09-16T23:01:18.503Z,50.71
2023-09-16T23:03:45.328Z,50.43
2023-09-16T23:06:11.913Z,51.10
2023-09-16T23:08:38.485Z,51.37
2023-09-16T23:11:05.067Z,51.23
2023-09-16T23:13:31.739Z,51.08
2023-09-16T23:15:58.352Z,51.50
2023-09-16T23:18:25.033Z,50.76
2023-09-16T23:20:58.764Z,51.57
2023-09-16T23:23:26.579Z,52.64
2023-09-16T23:25:55.325Z,51.96
2023-09-16T23:28:22.203Z,52.14
2023-09-16T23:30:48.913Z,52.00
2023-09-16T23:33:17.240Z,52.58
2023-09-16T23:35:44.274Z,52.70
2023-09-16T23:38:14.374Z,52.27
2023-09-16T23:40:42.860Z,52.18
2023-09-16T23:43:09.601Z,52.00
2023-09-16T23:45:36.874Z,52.06
2023-09-16T23:48:06.600Z,52.23
2023-09-16T23:50:33.883Z,52.11
2023-09-16T23:53:00.805Z,51.98
2023-09-16T23:55:27.721Z,51.65
2023-09-16T23:57:54.812Z,51.53
